Time;durP1;ratioP1;P1;durP2;ratioP2;P2;SDS_P1;SDS_P2;PMS_P1;PMS_P2;Temp;Humidity;BMP_temperature;BMP_pressure;BME280_temperature;BME280_humidity;BME280_pressure;Samples;Min_cycle;Max_cycle;Signal;HPM_P1;HPM_P2
2021/07/08 00:01:18;;;;;;;4.88;1.02;;;17.10;99.90;;;;;;4859387;29;20452;-95
2021/07/08 00:03:46;;;;;;;2.30;1.02;;;17.10;99.90;;;;;;4860355;29;20541;-95
2021/07/08 00:06:17;;;;;;;2.60;1.10;;;17.20;99.90;;;;;;4848764;29;20434;-95
2021/07/08 00:08:45;;;;;;;4.65;0.90;;;17.10;99.90;;;;;;4849255;29;20951;-95
2021/07/08 00:11:15;;;;;;;1.80;0.90;;;17.00;99.90;;;;;;4848042;29;20449;-96
2021/07/08 00:13:42;;;;;;;4.18;1.00;;;17.00;99.90;;;;;;4848472;29;20438;-95
2021/07/08 00:16:09;;;;;;;1.08;0.73;;;17.00;99.90;;;;;;4847944;29;20468;-95
2021/07/08 00:18:36;;;;;;;4.07;1.00;;;17.00;99.90;;;;;;4849268;29;21053;-94
2021/07/08 00:21:04;;;;;;;2.23;1.07;;;16.90;99.90;;;;;;4849942;29;20450;-96
2021/07/08 00:23:34;;;;;;;3.03;0.98;;;16.90;99.90;;;;;;4848312;29;20438;-96
2021/07/08 00:26:02;;;;;;;3.65;1.08;;;16.70;99.90;;;;;;4847755;29;20442;-95
2021/07/08 00:28:32;;;;;;;3.05;1.10;;;16.70;99.90;;;;;;4849021;29;20441;-95
2021/07/08 00:30:59;;;;;;;2.28;1.10;;;16.60;99.90;;;;;;4849227;29;20444;-94
2021/07/08 00:33:31;;;;;;;3.35;1.40;;;16.50;99.90;;;;;;4848717;29;20499;-94
2021/07/08 00:36:00;;;;;;;4.80;1.50;;;16.30;99.90;;;;;;4851331;29;20521;-96
2021/07/08 00:38:28;;;;;;;2.35;1.30;;;16.30;99.90;;;;;;4847570;29;20446;-95
2021/07/08 00:40:55;;;;;;;2.67;1.30;;;16.20;99.90;;;;;;4849382;29;20458;-94
2021/07/08 00:43:23;;;;;;;3.47;1.20;;;16.00;99.90;;;;;;4847750;29;20473;-96
2021/07/08 00:45:50;;;;;;;3.95;1.58;;;15.90;99.90;;;;;;4847746;29;20503;-96
2021/07/08 00:48:17;;;;;;;3.20;1.40;;;15.90;99.90;;;;;;4847275;29;20442;-96
2021/07/08 00:50:46;;;;;;;2.17;1.30;;;15.80;99.90;;;;;;4848101;29;20785;-94
2021/07/08 00:53:20;;;;;;;2.40;1.30;;;15.90;99.90;;;;;;4849499;29;20438;-96
2021/07/08 00:56:01;;;;;;;1.85;1.20;;;15.90;99.90;;;;;;4847375;29;20924;-95
2021/07/08 00:58:29;;;;;;;2.55;1.48;;;16.00;99.90;;;;;;4849737;29;20946;-95
2021/07/08 01:00:59;;;;;;;3.08;1.40;;;16.00;99.90;;;;;;4848243;29;20512;-95
2021/07/08 01:03:30;;;;;;;4.33;1.40;;;16.00;99.90;;;;;;4849631;29;20434;-95
2021/07/08 01:06:08;;;;;;;5.10;1.50;;;16.00;99.90;;;;;;4848558;29;20520;-96
2021/07/08 01:08:54;;;;;;;2.50;1.33;;;15.90;99.90;;;;;;4849107;29;20467;-96
2021/07/08 01:11:59;;;;;;;4.57;1.58;;;15.80;99.90;;;;;;4854732;29;20465;-96
2021/07/08 01:14:43;;;;;;;2.30;1.50;;;15.80;99.90;;;;;;4832524;29;20430;-96
2021/07/08 01:17:13;;;;;;;4.50;1.83;;;15.70;99.90;;;;;;4849796;29;20444;-95
2021/07/08 01:19:45;;;;;;;2.97;1.60;;;15.70;99.90;;;;;;4874478;23;20449;-94
2021/07/08 01:22:21;;;;;;;2.20;1.20;;;15.70;99.90;;;;;;4830529;29;20477;-94
2021/07/08 01:24:52;;;;;;;3.45;1.42;;;15.80;99.90;;;;;;4846621;29;20976;-95
2021/07/08 01:27:19;;;;;;;3.17;1.42;;;15.90;99.90;;;;;;4847756;29;20443;-96
2021/07/08 01:29:54;;;;;;;1.80;1.45;;;15.80;99.90;;;;;;4847280;29;20492;-95
2021/07/08 01:32:21;;;;;;;2.10;1.73;;;15.80;99.90;;;;;;4831713;29;20459;-94
2021/07/08 01:34:54;;;;;;;2.85;1.80;;;15.80;99.90;;;;;;4844354;29;20440;-96
2021/07/08 01:37:25;;;;;;;3.58;1.75;;;15.70;99.90;;;;;;4845628;29;20444;-95
2021/07/08 01:40:00;;;;;;;2.58;1.90;;;15.60;99.90;;;;;;4847088;29;20436;-94
2021/07/08 01:42:32;;;;;;;2.80;1.90;;;15.70;99.90;;;;;;4854043;29;20444;-95
2021/07/08 01:45:12;;;;;;;3.42;1.95;;;15.70;99.90;;;;;;4845337;29;20435;-95
2021/07/08 01:47:46;;;;;;;4.70;2.20;;;15.70;99.90;;;;;;4845764;29;20448;-94
2021/07/08 01:50:19;;;;;;;4.82;1.80;;;15.60;99.90;;;;;;4844521;29;20440;-96
2021/07/08 01:52:55;;;;;;;4.18;1.67;;;15.70;99.90;;;;;;4844922;29;20479;-94
2021/07/08 01:55:34;;;;;;;7.38;2.00;;;15.60;99.90;;;;;;4846955;29;20447;-95
2021/07/08 01:58:26;;;;;;;4.40;1.85;;;15.60;99.90;;;;;;4844478;29;20447;-95
2021/07/08 02:00:58;;;;;;;3.00;1.70;;;15.50;99.90;;;;;;4846769;29;20522;-95
2021/07/08 02:03:27;;;;;;;4.13;1.90;;;15.40;99.90;;;;;;4844090;29;20507;-96
2021/07/08 02:06:11;;;;;;;4.88;1.73;;;15.30;99.90;;;;;;4850247;29;20439;-95
2021/07/08 02:08:43;;;;;;;5.50;1.80;;;15.40;99.90;;;;;;4933022;23;20441;-95
2021/07/08 02:11:23;;;;;;;3.78;2.00;;;15.40;99.90;;;;;;4871963;29;20438;-95
2021/07/08 02:13:55;;;;;;;7.43;2.00;;;15.40;99.90;;;;;;4869860;29;20434;-95
2021/07/08 02:16:23;;;;;;;4.80;1.90;;;15.50;99.90;;;;;;4869123;29;20475;-95
2021/07/08 02:19:16;;;;;;;2.53;1.63;;;15.40;99.90;;;;;;4865505;29;20438;-95
2021/07/08 02:21:51;;;;;;;3.78;1.70;;;15.30;99.90;;;;;;4867313;29;21008;-94
2021/07/08 02:24:24;;;;;;;2.88;1.60;;;15.30;99.90;;;;;;4866354;29;20854;-95
2021/07/08 02:27:01;;;;;;;4.07;1.77;;;15.30;99.90;;;;;;4866559;29;20475;-95
2021/07/08 02:29:31;;;;;;;3.00;1.52;;;15.20;99.90;;;;;;4870098;29;20438;-95
2021/07/08 02:32:12;;;;;;;2.85;1.60;;;15.30;99.90;;;;;;4867187;29;20513;-95
2021/07/08 02:34:44;;;;;;;3.10;1.70;;;15.20;99.90;;;;;;4867108;29;20518;-95
2021/07/08 02:37:34;;;;;;;2.95;1.40;;;15.10;99.90;;;;;;4867304;29;20438;-94
2021/07/08 02:40:14;;;;;;;2.33;1.35;;;15.30;99.90;;;;;;4867238;29;20513;-96
2021/07/08 02:42:50;;;;;;;3.58;1.10;;;15.30;99.90;;;;;;4866690;29;20442;-95
2021/07/08 02:45:32;;;;;;;3.15;1.20;;;15.30;99.90;;;;;;4867872;29;20445;-95
2021/07/08 02:48:05;;;;;;;3.05;1.10;;;15.30;99.90;;;;;;4866999;29;20472;-94
2021/07/08 02:50:36;;;;;;;2.38;1.17;;;15.30;99.90;;;;;;4867819;29;20438;-96
2021/07/08 02:53:06;;;;;;;2.42;1.23;;;15.40;99.90;;;;;;4866604;29;20463;-95
2021/07/08 02:55:41;;;;;;;3.45;1.25;;;15.40;99.90;;;;;;4867408;29;20451;-95
2021/07/08 02:58:11;;;;;;;2.30;1.00;;;15.40;99.90;;;;;;4867635;29;20478;-94
2021/07/08 03:00:48;;;;;;;1.85;0.90;;;15.30;99.90;;;;;;4866843;29;20524;-94
2021/07/08 03:03:21;;;;;;;4.00;0.90;;;15.20;99.90;;;;;;4867170;29;20449;-94
2021/07/08 03:05:48;;;;;;;2.30;0.90;;;15.10;99.90;;;;;;4865863;29;20498;-95
2021/07/08 03:08:16;;;;;;;1.90;0.85;;;15.10;99.90;;;;;;4865777;29;20520;-94
2021/07/08 03:10:50;;;;;;;2.22;0.90;;;15.10;99.90;;;;;;4867719;29;20764;-95
2021/07/08 03:13:19;;;;;;;2.00;0.80;;;15.10;99.90;;;;;;4870957;29;20467;-95
2021/07/08 03:15:51;;;;;;;2.77;0.87;;;15.20;99.90;;;;;;4870752;29;20930;-96
2021/07/08 03:18:27;;;;;;;4.43;0.75;;;15.20;99.90;;;;;;4870060;29;20492;-95
2021/07/08 03:20:57;;;;;;;2.72;0.90;;;15.30;99.90;;;;;;4882646;29;20431;-95
2021/07/08 03:23:25;;;;;;;3.10;0.75;;;15.30;99.90;;;;;;4878697;29;20432;-95
2021/07/08 03:26:09;;;;;;;4.28;0.80;;;15.30;99.90;;;;;;4873232;29;20423;-95
2021/07/08 03:28:41;;;;;;;3.10;0.95;;;15.30;99.90;;;;;;4859266;23;20514;-96
2021/07/08 03:31:08;;;;;;;2.95;1.00;;;15.30;99.90;;;;;;4845568;29;20807;-96
2021/07/08 03:33:38;;;;;;;2.55;1.00;;;15.30;99.90;;;;;;4848310;29;20476;-93
2021/07/08 03:36:06;;;;;;;2.88;1.38;;;15.30;99.90;;;;;;4845569;29;20424;-94
2021/07/08 03:38:33;;;;;;;2.92;1.20;;;15.30;99.90;;;;;;4846153;29;20451;-93
2021/07/08 03:41:00;;;;;;;3.00;1.27;;;15.30;99.90;;;;;;4844392;29;20932;-95
2021/07/08 03:43:27;;;;;;;2.22;1.30;;;15.30;99.90;;;;;;4848588;29;20442;-94
2021/07/08 03:45:55;;;;;;;4.47;1.80;;;15.30;99.90;;;;;;4846610;29;20448;-94
2021/07/08 03:48:24;;;;;;;4.60;1.30;;;15.30;99.90;;;;;;4845176;29;20448;-94
2021/07/08 03:50:51;;;;;;;3.83;1.38;;;15.30;99.90;;;;;;4845573;29;20970;-95
2021/07/08 03:53:19;;;;;;;3.45;1.30;;;15.30;99.90;;;;;;4844669;29;20496;-94
2021/07/08 03:55:46;;;;;;;2.78;1.27;;;15.30;99.90;;;;;;4831603;29;20449;-94
2021/07/08 03:58:13;;;;;;;3.25;1.60;;;15.30;99.90;;;;;;4843802;29;20589;-93
2021/07/08 04:00:52;;;;;;;5.65;1.40;;;15.40;99.90;;;;;;4848138;29;20488;-96
2021/07/08 04:03:19;;;;;;;2.25;1.33;;;15.40;99.90;;;;;;4846841;29;20448;-94
2021/07/08 04:05:48;;;;;;;2.42;1.50;;;15.30;99.90;;;;;;4845648;29;20473;-95
2021/07/08 04:08:15;;;;;;;3.58;1.75;;;15.30;99.90;;;;;;4845231;29;20442;-95
2021/07/08 04:10:44;;;;;;;2.97;1.40;;;15.30;99.90;;;;;;4845457;29;20417;-95
2021/07/08 04:13:20;;;;;;;2.25;1.30;;;15.40;99.90;;;;;;4843537;29;20495;-96
2021/07/08 04:15:51;;;;;;;2.17;1.30;;;15.30;99.90;;;;;;4828317;29;20470;-94
2021/07/08 04:18:27;;;;;;;3.08;1.40;;;15.40;99.90;;;;;;4830938;29;20863;-95
2021/07/08 04:20:56;;;;;;;3.63;1.38;;;15.40;99.90;;;;;;4825791;29;20449;-94
2021/07/08 04:23:26;;;;;;;3.67;1.50;;;15.30;99.90;;;;;;4827492;29;20480;-96
2021/07/08 04:26:41;;;;;;;2.75;1.50;;;15.20;99.90;;;;;;4837427;29;20446;-96
2021/07/08 04:29:08;;;;;;;4.35;1.73;;;15.10;99.90;;;;;;4833105;29;20452;-94
2021/07/08 04:31:36;;;;;;;4.25;1.90;;;15.10;99.90;;;;;;4829284;29;20449;-94
2021/07/08 04:34:03;;;;;;;4.30;1.80;;;15.20;99.90;;;;;;4828892;29;20497;-94
2021/07/08 04:36:36;;;;;;;3.13;2.03;;;15.20;99.90;;;;;;4831445;29;20437;-94
2021/07/08 04:42:15;;;;;;;4.20;2.10;;;15.40;99.90;;;;;;4966044;23;20446;-96
2021/07/08 04:45:06;;;;;;;3.58;1.90;;;15.50;99.90;;;;;;4854765;29;20446;-96
2021/07/08 04:54:28;;;;;;;4.72;1.75;;;15.80;99.90;;;;;;4869578;29;20446;-95
2021/07/08 05:00:11;;;;;;;2.80;1.60;;;16.00;99.90;;;;;;5038945;23;20437;-95
2021/07/08 05:09:45;;;;;;;3.33;1.80;;;16.20;99.90;;;;;;5260438;23;20451;-96
2021/07/08 05:12:47;;;;;;;3.20;1.83;;;16.20;99.90;;;;;;4835323;29;20439;-96
2021/07/08 05:15:46;;;;;;;4.47;1.92;;;16.20;99.90;;;;;;4834378;29;20443;-95
2021/07/08 05:18:16;;;;;;;2.83;1.90;;;16.20;99.90;;;;;;4848289;23;20428;-95
2021/07/08 05:20:55;;;;;;;3.33;1.60;;;16.20;99.90;;;;;;4850447;29;20509;-96
2021/07/08 05:23:51;;;;;;;6.88;2.17;;;16.10;99.90;;;;;;4852684;29;20451;-96
2021/07/08 05:26:34;;;;;;;3.63;1.90;;;16.10;99.90;;;;;;4850518;29;20422;-94
2021/07/08 05:29:01;;;;;;;4.00;1.65;;;16.10;99.90;;;;;;4847348;29;20468;-93
2021/07/08 05:31:28;;;;;;;3.45;1.80;;;16.20;99.90;;;;;;4845471;29;20438;-94
2021/07/08 05:33:55;;;;;;;16.40;2.70;;;16.30;99.90;;;;;;4845861;29;20514;-93
2021/07/08 05:36:22;;;;;;;4.95;2.20;;;16.30;99.90;;;;;;4845679;29;20434;-94
2021/07/08 05:38:49;;;;;;;5.60;1.60;;;16.50;99.90;;;;;;4845534;29;20430;-96
2021/07/08 05:41:16;;;;;;;5.65;1.90;;;16.60;99.90;;;;;;4846741;29;20785;-94
2021/07/08 05:43:45;;;;;;;12.43;2.42;;;16.70;99.90;;;;;;4845429;29;20449;-95
2021/07/08 05:46:44;;;;;;;5.25;2.08;;;16.80;99.90;;;;;;4855352;29;20452;-96
2021/07/08 05:53:21;;;;;;;;;;;;;;;;;;;;;
2021/07/08 05:56:53;;;;;;;;;;;;;;;;;;;;;
2021/07/08 06:07:41;;;;;;;1.60;1.13;;;21.90;99.90;;;;;;5032498;23;20433;-96
2021/07/08 06:10:34;;;;;;;18.75;2.28;;;22.60;99.90;;;;;;4881527;29;20982;-96
2021/07/08 06:13:17;;;;;;;3.97;1.60;;;23.70;99.90;;;;;;4863896;29;20444;-96
2021/07/08 06:16:13;;;;;;;;;;;;;;;;;;;;;
2021/07/08 06:55:29;;;;;;;4.10;1.30;;;27.00;99.90;;;;;;4822304;29;20423;-96
2021/07/08 07:00:54;;;;;;;1.83;1.30;;;25.10;99.90;;;;;;4878748;29;20445;-96
2021/07/08 07:03:37;;;;;;;4.35;1.60;;;24.70;99.90;;;;;;4868895;29;20599;-96
2021/07/08 07:06:20;;;;;;;3.10;1.30;;;24.20;99.90;;;;;;4864944;29;20433;-95
2021/07/08 07:09:07;;;;;;;1.48;1.33;;;24.10;99.90;;;;;;4862728;29;20494;-96
2021/07/08 07:11:45;;;;;;;5.50;1.30;;;23.90;99.90;;;;;;4861809;29;20414;-96
2021/07/08 07:14:44;;;;;;;3.88;1.45;;;23.90;99.90;;;;;;4866098;29;20445;-96
2021/07/08 07:42:36;;;;;;;1.58;1.40;;;23.70;99.90;;;;;;1525476;23;20635;-87
2021/07/08 07:45:08;;;;;;;2.88;1.67;;;23.40;99.90;;;;;;4864833;29;20442;-92
2021/07/08 07:48:06;;;;;;;6.68;1.55;;;23.40;99.90;;;;;;4866269;29;20919;-91
2021/07/08 07:50:40;;;;;;;2.22;1.30;;;23.30;99.90;;;;;;4851986;29;20418;-90
2021/07/08 07:59:43;;;;;;;8.30;1.75;;;23.50;99.90;;;;;;5380548;23;20747;31
2021/07/08 08:03:25;;;;;;;6.68;1.50;;;23.70;99.90;;;;;;4849389;29;20543;-92
2021/07/08 08:12:55;;;;;;;3.95;1.73;;;24.00;99.90;;;;;;5667912;23;20879;-92
2021/07/08 08:15:23;;;;;;;6.35;1.67;;;23.90;99.90;;;;;;4849191;29;20438;-93
2021/07/08 08:17:50;;;;;;;4.00;1.80;;;23.80;99.90;;;;;;4854469;29;20418;-91
2021/07/08 08:20:18;;;;;;;5.00;1.63;;;23.70;99.90;;;;;;4861870;29;20448;-92
2021/07/08 08:22:45;;;;;;;9.23;1.75;;;23.60;99.90;;;;;;4840969;29;20510;-91
2021/07/08 08:25:16;;;;;;;10.25;1.85;;;23.70;99.90;;;;;;4856439;29;20575;-95
2021/07/08 08:27:43;;;;;;;3.63;1.70;;;23.70;99.90;;;;;;4849774;29;20498;-90
2021/07/08 08:30:13;;;;;;;2.85;1.40;;;23.60;99.90;;;;;;4849018;29;20514;-92
2021/07/08 08:32:41;;;;;;;5.13;1.50;;;23.70;99.90;;;;;;4849004;29;20426;-93
2021/07/08 08:35:10;;;;;;;1.65;1.25;;;23.70;99.90;;;;;;4847891;29;20511;-91
2021/07/08 08:37:38;;;;;;;1.80;1.30;;;23.70;99.90;;;;;;4848247;29;20499;-91
2021/07/08 08:40:06;;;;;;;3.63;1.50;;;23.80;99.90;;;;;;4847137;29;20450;-94
2021/07/08 08:42:33;;;;;;;5.07;1.48;;;23.80;99.90;;;;;;4847182;29;20454;-91
2021/07/08 08:45:01;;;;;;;18.52;1.90;;;23.90;99.90;;;;;;4849879;29;20445;-94
2021/07/08 08:47:28;;;;;;;4.80;1.60;;;24.00;99.90;;;;;;4848973;29;20490;-91
2021/07/08 08:49:55;;;;;;;4.70;1.90;;;24.10;99.90;;;;;;4847422;29;20434;-94
2021/07/08 08:52:22;;;;;;;4.63;1.38;;;24.10;99.90;;;;;;4846546;29;20510;-89
2021/07/08 08:54:52;;;;;;;2.20;1.20;;;24.00;99.90;;;;;;4846342;29;20530;-95
2021/07/08 08:57:19;;;;;;;2.03;1.10;;;23.70;99.90;;;;;;4846198;29;21060;-94
2021/07/08 08:59:46;;;;;;;1.83;1.13;;;23.80;99.90;;;;;;4847368;29;20465;-93
2021/07/08 09:02:14;;;;;;;4.35;1.20;;;23.70;99.90;;;;;;4847779;29;20442;-91
2021/07/08 09:04:42;;;;;;;1.17;1.08;;;24.00;99.90;;;;;;4851119;29;20446;-93
2021/07/08 09:07:26;;;;;;;85.87;4.57;;;23.90;99.90;;;;;;4847706;29;20797;-91
2021/07/08 09:10:09;;;;;;;4.50;1.60;;;24.00;99.90;;;;;;4846584;29;20774;-94
2021/07/08 09:12:36;;;;;;;28.00;3.28;;;24.00;99.90;;;;;;4845969;29;20442;-91
2021/07/08 09:15:21;;;;;;;5.47;1.30;;;24.20;99.90;;;;;;4846697;29;20838;-91
2021/07/08 09:17:48;;;;;;;3.92;1.40;;;24.10;99.90;;;;;;4846449;29;20845;-91
2021/07/08 09:20:19;;;;;;;2.47;1.48;;;24.50;99.90;;;;;;4846175;29;20441;-90
2021/07/08 09:22:48;;;;;;;2.47;1.40;;;25.20;99.90;;;;;;4847566;29;20442;-94
2021/07/08 09:25:21;;;;;;;6.07;1.40;;;25.80;99.90;;;;;;4861885;29;20518;-91
2021/07/08 09:27:51;;;;;;;2.45;1.20;;;26.20;99.90;;;;;;4861474;29;20438;-91
2021/07/08 09:30:30;;;;;;;4.72;1.30;;;25.80;99.90;;;;;;4862222;29;20434;-91
2021/07/08 09:32:58;;;;;;;73.20;3.57;;;25.60;99.90;;;;;;4861975;29;20441;-90
2021/07/08 09:35:37;;;;;;;4.63;1.30;;;25.50;99.90;;;;;;4863532;29;20430;-95
2021/07/08 09:38:09;;;;;;;7.38;1.27;;;25.50;99.90;;;;;;4849477;29;20461;-95
2021/07/08 09:40:38;;;;;;;2.33;1.27;;;25.50;99.90;;;;;;4865862;29;20441;-96
2021/07/08 09:43:06;;;;;;;1.27;1.08;;;25.60;99.90;;;;;;4863893;29;20870;-95
2021/07/08 09:45:47;;;;;;;3.53;1.30;;;25.60;99.90;;;;;;4863902;29;20434;-96
2021/07/08 09:48:23;;;;;;;4.43;1.35;;;25.50;99.90;;;;;;4849713;29;20442;-96
2021/07/08 09:50:50;;;;;;;3.53;1.23;;;25.50;99.90;;;;;;4863316;29;20446;-94
2021/07/08 09:54:26;;;;;;;2.30;1.23;;;25.80;99.90;;;;;;4875205;29;20442;-96
2021/07/08 10:00:32;;;;;;;;;;;;;;;;;;;;;
2021/07/08 10:52:33;;;;;;;3.47;1.98;;;26.90;99.90;;;;;;5221121;23;20931;-96
2021/07/08 10:55:01;;;;;;;2.97;1.60;;;27.10;99.90;;;;;;4812374;29;20529;-96
2021/07/08 10:57:54;;;;;;;5.60;1.65;;;27.20;99.90;;;;;;4815770;29;20448;-95
2021/07/08 11:00:45;;;;;;;2.90;1.73;;;27.10;99.90;;;;;;4812641;29;20448;-96
2021/07/08 11:03:42;;;;;;;4.72;1.55;;;27.10;99.90;;;;;;4829932;29;20533;-96
2021/07/08 11:06:24;;;;;;;3.78;1.80;;;27.20;99.90;;;;;;4827558;29;20526;-96
2021/07/08 11:09:13;;;;;;;4.78;1.80;;;27.60;99.90;;;;;;4828634;29;20454;-95
2021/07/08 11:11:41;;;;;;;689.20;63.85;;;27.70;99.90;;;;;;4828340;29;20939;-96
2021/07/08 11:14:11;;;;;;;62.25;5.93;;;27.80;99.90;;;;;;4812120;29;20442;-94
2021/07/08 11:16:43;;;;;;;4.43;1.90;;;27.90;99.90;;;;;;4829233;29;20442;-96
2021/07/08 11:19:25;;;;;;;6.23;1.80;;;28.00;99.90;;;;;;4830499;29;20486;-96
2021/07/08 11:22:17;;;;;;;4.88;1.75;;;27.90;99.90;;;;;;4835033;29;20460;-95
2021/07/08 11:25:11;;;;;;;2.77;1.70;;;27.40;99.90;;;;;;4824797;29;20424;-96
2021/07/08 11:27:57;;;;;;;8.80;1.73;;;26.80;99.90;;;;;;4820174;29;20461;-96
2021/07/08 11:30:46;;;;;;;8.50;1.90;;;26.70;99.90;;;;;;4807719;29;20437;-95
2021/07/08 11:33:23;;;;;;;6.82;1.92;;;26.70;99.90;;;;;;4833556;29;20515;-96
2021/07/08 11:36:31;;;;;;;3.78;1.75;;;27.00;99.90;;;;;;5461814;23;20415;-96
2021/07/08 11:39:12;;;;;;;3.17;1.90;;;27.40;99.90;;;;;;5064999;23;20459;-96
2021/07/08 11:41:58;;;;;;;3.45;1.60;;;27.60;99.90;;;;;;4855673;29;20935;-96
2021/07/08 11:44:31;;;;;;;1.98;1.60;;;27.70;99.90;;;;;;4865969;23;20450;-94
2021/07/08 11:46:59;;;;;;;5.68;1.70;;;27.60;99.90;;;;;;4859351;29;20438;-94
2021/07/08 11:49:49;;;;;;;3.75;1.90;;;27.80;99.90;;;;;;4855199;29;20438;-95
2021/07/08 11:52:29;;;;;;;189.82;9.48;;;28.10;99.90;;;;;;4854020;29;20444;-95
2021/07/08 11:55:29;;;;;;;33.38;3.10;;;28.20;99.90;;;;;;4917751;23;20515;-96
2021/07/08 11:58:34;;;;;;;6.18;1.92;;;28.00;99.90;;;;;;4849076;29;20438;-93
2021/07/08 12:01:17;;;;;;;4.67;1.83;;;27.80;99.90;;;;;;4870379;29;20442;-94
2021/07/08 12:04:02;;;;;;;2.05;1.73;;;27.40;99.90;;;;;;4870193;29;20452;-93
2021/07/08 12:06:52;;;;;;;3.40;1.90;;;26.80;99.90;;;;;;4869512;29;20532;-96
2021/07/08 12:09:48;;;;;;;27.08;3.10;;;26.30;99.90;;;;;;4874939;29;20434;-96
2021/07/08 12:12:30;;;;;;;5.72;2.00;;;25.80;99.90;;;;;;4865114;29;20933;-95
2021/07/08 12:15:01;;;;;;;3.70;1.83;;;25.30;99.90;;;;;;4858467;29;20527;-95
2021/07/08 12:17:59;;;;;;;3.55;1.92;;;25.10;99.90;;;;;;4829175;29;20420;-93
2021/07/08 12:20:56;;;;;;;3.55;1.95;;;24.70;99.90;;;;;;4854276;29;20416;-96
2021/07/08 12:24:27;;;;;;;20.70;2.87;;;24.30;99.90;;;;;;4854754;29;20533;-94
2021/07/08 12:28:04;;;;;;;2.72;2.00;;;24.00;99.90;;;;;;4844750;29;20541;-94
2021/07/08 12:31:18;;;;;;;55.17;4.03;;;23.60;99.90;;;;;;4841955;29;20430;-94
2021/07/08 12:36:47;;;;;;;11.07;2.90;;;23.00;99.90;;;;;;4872622;29;21015;-94
2021/07/08 12:39:28;;;;;;;13.27;3.30;;;22.70;99.90;;;;;;4859176;29;20437;-95
2021/07/08 12:42:58;;;;;;;;;;;;;;;;;;;;;
2021/07/08 13:08:30;;;;;;;21.02;12.82;;;19.80;99.90;;;;;;5535883;23;20958;-94
2021/07/08 13:12:31;;;;;;;17.88;7.60;;;21.30;99.90;;;;;;4857565;29;20864;-95
2021/07/08 13:22:35;;;;;;;9.55;6.60;;;23.80;99.90;;;;;;5092352;23;20425;-92
2021/07/08 13:32:26;;;;;;;3.97;3.40;;;25.50;99.90;;;;;;4995494;23;20450;-96
2021/07/08 13:34:54;;;;;;;4.63;3.03;;;25.60;99.90;;;;;;4855982;29;20954;-96
2021/07/08 13:37:52;;;;;;;5.28;3.80;;;25.60;99.90;;;;;;4926280;23;20444;-96
2021/07/08 13:44:36;;;;;;;8.00;3.90;;;26.20;99.90;;;;;;4898912;29;20469;-96
2021/07/08 13:47:45;;;;;;;7.80;4.00;;;26.50;99.90;;;;;;4886053;29;20433;-96
2021/07/08 13:50:59;;;;;;;7.07;4.53;;;26.50;99.90;;;;;;4894615;29;20465;-96
2021/07/08 13:53:41;;;;;;;7.13;3.70;;;26.60;99.90;;;;;;4968801;23;20437;-94
2021/07/08 13:56:19;;;;;;;5.80;3.42;;;27.00;99.90;;;;;;4856240;29;20446;-96
2021/07/08 13:59:04;;;;;;;6.47;3.45;;;27.10;99.90;;;;;;4869633;29;20438;-96
2021/07/08 14:02:03;;;;;;;8.70;3.50;;;27.30;99.90;;;;;;4859114;29;20414;-95
2021/07/08 14:04:43;;;;;;;6.90;3.67;;;27.60;99.90;;;;;;4846165;29;20442;-96
2021/07/08 14:27:07;;;;;;;4.28;2.80;;;25.90;99.90;;;;;;4857810;29;20444;-96
2021/07/08 14:30:25;;;;;;;4.72;2.70;;;26.60;99.90;;;;;;4810625;29;20523;-96
2021/07/08 14:33:01;;;;;;;5.65;2.30;;;28.10;99.90;;;;;;4758828;30;20440;-96
2021/07/08 14:38:21;;;;;;;4.97;2.22;;;29.40;99.90;;;;;;5081132;23;20445;-96
2021/07/08 14:40:55;;;;;;;4.25;2.20;;;28.90;99.90;;;;;;4862151;29;20457;-93
2021/07/08 14:47:07;;;;;;;5.60;2.60;;;26.70;99.90;;;;;;4872921;29;20421;-94
2021/07/08 14:49:36;;;;;;;6.75;2.72;;;25.60;99.90;;;;;;4848711;29;20522;-96
2021/07/08 14:52:27;;;;;;;6.50;2.50;;;25.00;99.90;;;;;;4853235;29;20466;-96
2021/07/08 15:12:19;;;;;;;6.05;3.50;;;23.00;99.90;;;;;;4830651;29;20510;-96
2021/07/08 15:14:54;;;;;;;4.53;3.75;;;22.30;99.90;;;;;;4831067;29;20513;-96
2021/07/08 15:17:23;;;;;;;7.55;3.72;;;21.90;99.90;;;;;;4814881;29;20470;-95
2021/07/08 15:19:52;;;;;;;8.68;3.97;;;21.60;99.90;;;;;;4819115;29;20441;-94
2021/07/08 15:22:25;;;;;;;7.00;3.80;;;21.40;99.90;;;;;;5059117;23;20397;-95
2021/07/08 15:25:14;;;;;;;7.10;4.10;;;21.20;99.90;;;;;;5140369;23;20462;-95
2021/07/08 15:28:09;;;;;;;8.93;4.50;;;21.00;99.90;;;;;;4884667;29;20441;-96
2021/07/08 15:30:42;;;;;;;5.57;3.88;;;20.80;99.90;;;;;;4875370;29;20435;-96
2021/07/08 15:33:19;;;;;;;7.10;4.43;;;20.70;99.90;;;;;;4871418;29;20964;-96
2021/07/08 15:35:52;;;;;;;7.95;4.40;;;20.50;99.90;;;;;;4875118;29;20473;-95
2021/07/08 15:38:23;;;;;;;6.05;4.30;;;20.40;99.90;;;;;;4870381;29;20439;-95
2021/07/08 15:40:50;;;;;;;6.50;4.28;;;20.40;99.90;;;;;;4869529;29;20471;-96
2021/07/08 15:43:18;;;;;;;10.23;4.30;;;20.40;99.90;;;;;;4871069;29;20455;-93
2021/07/08 15:45:47;;;;;;;6.20;3.90;;;20.50;99.90;;;;;;4872417;29;20467;-96
2021/07/08 15:48:17;;;;;;;8.02;4.10;;;20.50;99.90;;;;;;4875499;29;20469;-96
2021/07/08 15:50:56;;;;;;;6.78;4.00;;;20.60;99.90;;;;;;4871582;29;20433;-96
2021/07/08 15:53:25;;;;;;;6.35;3.55;;;20.60;99.90;;;;;;4868415;29;20441;-96
2021/07/08 15:55:54;;;;;;;8.35;4.10;;;20.60;99.90;;;;;;4872981;29;20446;-94
2021/07/08 15:58:25;;;;;;;8.40;4.10;;;20.50;99.90;;;;;;4870172;29;20448;-95
2021/07/08 16:00:55;;;;;;;7.20;2.60;;;20.60;99.90;;;;;;4873984;29;20432;-96
2021/07/08 16:03:22;;;;;;;5.65;2.17;;;20.60;99.90;;;;;;4868563;29;20985;-94
2021/07/08 16:05:49;;;;;;;7.13;1.80;;;20.70;99.90;;;;;;4866039;29;20841;-95
2021/07/08 16:08:17;;;;;;;4.32;1.60;;;21.00;99.90;;;;;;4866860;29;20438;-94
2021/07/08 16:10:48;;;;;;;3.90;1.70;;;21.30;99.90;;;;;;4865831;29;20452;-94
2021/07/08 16:13:17;;;;;;;4.85;1.83;;;21.10;99.90;;;;;;4866947;29;20439;-93
2021/07/08 16:15:47;;;;;;;7.20;1.90;;;20.80;99.90;;;;;;4865534;29;20428;-94
2021/07/08 16:18:16;;;;;;;4.72;1.70;;;20.80;99.90;;;;;;4866453;29;20443;-94
2021/07/08 16:20:46;;;;;;;7.97;1.85;;;21.10;99.90;;;;;;4865701;29;20516;-95
2021/07/08 16:23:18;;;;;;;7.40;1.80;;;21.10;99.90;;;;;;4866365;29;20461;-94
2021/07/08 16:25:46;;;;;;;6.15;1.90;;;21.10;99.90;;;;;;4866690;29;20445;-95
2021/07/08 16:28:14;;;;;;;6.72;1.88;;;20.90;99.90;;;;;;4865522;29;21024;-95
2021/07/08 16:30:41;;;;;;;8.25;2.00;;;20.90;99.90;;;;;;4866008;29;20794;-94
2021/07/08 16:33:08;;;;;;;5.05;1.88;;;21.30;99.90;;;;;;4865056;29;20447;-95
2021/07/08 16:35:36;;;;;;;7.22;2.15;;;21.20;99.90;;;;;;4873773;29;20416;-94
2021/07/08 16:38:03;;;;;;;4.38;2.35;;;21.10;99.90;;;;;;4876127;29;20926;-95
2021/07/08 16:40:30;;;;;;;9.27;2.80;;;20.50;99.90;;;;;;4865588;29;20429;-93
2021/07/08 16:42:58;;;;;;;8.15;3.42;;;19.90;99.90;;;;;;4865204;29;20444;-93
2021/07/08 16:45:26;;;;;;;7.95;3.67;;;19.60;99.90;;;;;;4864808;29;20772;-93
2021/07/08 16:47:53;;;;;;;8.50;3.55;;;19.30;99.90;;;;;;4865812;29;20432;-94
2021/07/08 16:50:21;;;;;;;8.07;3.85;;;19.00;99.90;;;;;;4865257;29;20519;-93
2021/07/08 16:53:04;;;;;;;7.07;3.35;;;19.00;99.90;;;;;;4866752;29;20545;-94
2021/07/08 16:55:31;;;;;;;9.25;3.90;;;18.80;99.90;;;;;;4864529;29;20953;-93
2021/07/08 16:57:58;;;;;;;9.05;4.03;;;18.60;99.90;;;;;;4865453;29;20516;-93
2021/07/08 17:00:25;;;;;;;7.40;4.13;;;18.50;99.90;;;;;;4864293;29;20448;-94
2021/07/08 17:02:52;;;;;;;7.65;3.97;;;18.40;99.90;;;;;;4864499;29;20926;-93
2021/07/08 17:05:19;;;;;;;7.07;4.00;;;18.30;99.90;;;;;;4864515;29;20440;-94
2021/07/08 17:07:49;;;;;;;6.80;3.80;;;18.20;99.90;;;;;;4864828;29;20429;-94
2021/07/08 17:10:17;;;;;;;6.30;3.67;;;18.20;99.90;;;;;;4864725;29;20471;-93
2021/07/08 17:12:45;;;;;;;5.30;3.60;;;18.10;99.90;;;;;;4864532;29;20444;-93
2021/07/08 17:15:13;;;;;;;6.90;3.30;;;18.00;99.90;;;;;;4864620;29;20436;-94
2021/07/08 17:17:40;;;;;;;6.55;3.42;;;18.00;99.90;;;;;;4864961;29;20432;-92
2021/07/08 17:20:10;;;;;;;7.57;3.70;;;18.00;99.90;;;;;;4864358;29;20447;-93
2021/07/08 17:22:39;;;;;;;6.78;4.15;;;17.90;99.90;;;;;;4864251;29;20490;-94
2021/07/08 17:25:08;;;;;;;6.55;3.65;;;17.90;99.90;;;;;;4864104;29;20484;-93
2021/07/08 17:27:35;;;;;;;8.60;4.00;;;18.00;99.90;;;;;;4875161;29;20425;-95
2021/07/08 17:30:07;;;;;;;8.05;4.10;;;17.90;99.90;;;;;;4880662;29;20504;-96
2021/07/08 17:32:36;;;;;;;8.00;4.05;;;17.90;99.90;;;;;;4880711;29;20412;-96
2021/07/08 17:35:22;;;;;;;6.65;4.18;;;17.90;99.90;;;;;;4891324;29;20435;-96
2021/07/08 17:37:49;;;;;;;8.02;4.60;;;17.90;99.90;;;;;;4876129;29;21029;-94
2021/07/08 17:40:19;;;;;;;8.53;4.17;;;18.00;99.90;;;;;;4876174;29;20443;-96
2021/07/08 17:42:49;;;;;;;7.40;4.50;;;18.00;99.90;;;;;;4877308;29;20440;-96
2021/07/08 18:41:17;;;;;;;45.03;21.13;;;16.70;99.90;;;;;;6214893;22;20346;31
